createdAt,value
2019-02-26T00:01:59.421Z,10.83
2019-02-26T00:04:32.148Z,11.27
2019-02-26T00:07:02.157Z,10.13
2019-02-26T00:09:35.189Z,10.73
2019-02-26T00:12:04.869Z,10.33
2019-02-26T00:14:35.361Z,11.07
2019-02-26T00:17:08.630Z,9.80
2019-02-26T00:19:37.934Z,10.77
2019-02-26T00:22:09.524Z,10.20
2019-02-26T00:24:42.665Z,10.43
2019-02-26T00:27:13.719Z,9.43
2019-02-26T00:29:44.735Z,9.97
2019-02-26T00:32:18.389Z,9.37
2019-02-26T00:34:48.594Z,9.90
2019-02-26T00:37:19.990Z,9.70
2019-02-26T00:39:51.775Z,10.07
2019-02-26T00:42:24.295Z,8.93
2019-02-26T00:44:58.221Z,9.23
2019-02-26T00:47:31.845Z,8.80
2019-02-26T00:50:02.006Z,9.70
2019-02-26T00:52:34.835Z,8.67
2019-02-26T00:55:07.185Z,9.70
2019-02-26T00:57:42.542Z,9.73
2019-02-26T01:00:13.914Z,9.10
2019-02-26T01:02:44.483Z,9.17
2019-02-26T01:05:15.931Z,8.70
2019-02-26T01:07:48.897Z,9.77
2019-02-26T01:10:21.170Z,9.40
2019-02-26T01:12:51.632Z,9.50
2019-02-26T01:15:22.185Z,9.30
2019-02-26T01:17:57.131Z,9.33
2019-02-26T01:20:29.651Z,9.53
2019-02-26T01:22:59.866Z,8.90
2019-02-26T01:25:30.311Z,8.57
2019-02-26T01:28:00.737Z,9.33
2019-02-26T01:30:33.684Z,9.30
2019-02-26T01:33:04.982Z,9.83
2019-02-26T01:35:37.747Z,8.87
2019-02-26T01:38:07.950Z,9.87
2019-02-26T01:40:41.516Z,9.53
2019-02-26T01:43:11.694Z,9.13
2019-02-26T01:45:43.849Z,10.17
2019-02-26T01:48:16.713Z,8.60
2019-02-26T01:50:46.763Z,8.83
2019-02-26T01:53:19.225Z,9.77
2019-02-26T01:55:50.534Z,8.77
2019-02-26T01:58:20.984Z,8.90
2019-02-26T02:00:55.311Z,9.23
2019-02-26T02:03:25.419Z,9.67
2019-02-26T02:05:57.290Z,9.77
2019-02-26T02:08:28.045Z,9.53
2019-02-26T02:10:59.931Z,9.70
2019-02-26T02:13:32.961Z,10.40
2019-02-26T02:16:04.545Z,9.50
2019-02-26T02:18:35.446Z,9.95
2019-02-26T02:21:06.008Z,9.50
2019-02-26T02:23:36.471Z,9.60
2019-02-26T02:26:08.835Z,10.20
2019-02-26T02:28:39.177Z,9.57
2019-02-26T02:31:09.657Z,10.30
2019-02-26T02:33:40.193Z,10.03
2019-02-26T02:36:11.792Z,9.77
2019-02-26T02:38:43.341Z,8.77
2019-02-26T02:41:13.785Z,9.97
2019-02-26T02:43:44.265Z,9.67
2019-02-26T02:46:14.745Z,10.53
2019-02-26T02:48:46.049Z,9.50
2019-02-26T02:51:16.842Z,10.10
2019-02-26T02:53:47.868Z,9.27
2019-02-26T02:56:19.808Z,9.33
2019-02-26T02:58:51.523Z,10.37
2019-02-26T03:01:24.528Z,10.47
2019-02-26T03:03:56.442Z,9.70
2019-02-26T03:06:29.006Z,10.00
2019-02-26T03:08:58.989Z,10.17
2019-02-26T03:11:29.578Z,9.47
2019-02-26T03:14:00.038Z,9.33
2019-02-26T03:16:30.489Z,10.00
2019-02-26T03:19:01.176Z,10.80
2019-02-26T03:21:31.608Z,10.83
2019-02-26T03:24:03.356Z,11.07
2019-02-26T03:26:34.466Z,10.78
2019-02-26T03:29:04.906Z,10.53
2019-02-26T03:31:40.519Z,11.43
2019-02-26T03:34:14.668Z,12.03
2019-02-26T03:36:45.402Z,12.13
2019-02-26T03:39:14.970Z,11.53
2019-02-26T03:41:46.597Z,12.57
2019-02-26T03:44:17.840Z,11.93
2019-02-26T03:46:48.563Z,11.90
2019-02-26T03:49:18.989Z,10.50
2019-02-26T03:51:49.457Z,12.30
2019-02-26T03:54:19.882Z,11.63
2019-02-26T03:56:50.534Z,11.50
2019-02-26T03:59:21.333Z,12.23
2019-02-26T04:01:52.147Z,12.77
2019-02-26T04:04:23.095Z,11.80
2019-02-26T04:06:55.891Z,11.43
2019-02-26T04:09:26.909Z,9.83
2019-02-26T04:11:57.345Z,11.23
2019-02-26T04:14:28.780Z,11.30
2019-02-26T04:17:01.669Z,12.07
2019-02-26T04:19:32.661Z,10.93
2019-02-26T04:22:27.819Z,11.17
2019-02-26T04:25:04.795Z,11.40
2019-02-26T04:27:53.371Z,11.70
2019-02-26T04:30:58.929Z,12.77
2019-02-26T04:34:08.530Z,13.57
2019-02-26T04:37:16.445Z,14.47
2019-02-26T04:40:11.911Z,14.50
2019-02-26T04:43:31.331Z,14.23
2019-02-26T04:46:31.048Z,13.63
2019-02-26T04:49:00.595Z,15.40
2019-02-26T04:51:34.284Z,14.27
2019-02-26T04:54:04.870Z,16.03
2019-02-26T04:56:37.078Z,16.27
2019-02-26T04:59:09.925Z,13.83
2019-02-26T05:01:40.153Z,15.03
2019-02-26T05:04:10.809Z,14.43
2019-02-26T05:06:41.273Z,14.47
2019-02-26T05:09:11.709Z,15.90
2019-02-26T05:11:42.178Z,15.20
2019-02-26T05:14:15.467Z,13.23
2019-02-26T05:16:45.444Z,14.93
2019-02-26T05:19:17.017Z,14.13
2019-02-26T05:21:48.052Z,13.63
2019-02-26T05:24:21.359Z,16.00
2019-02-26T05:26:51.869Z,15.00
2019-02-26T05:29:22.393Z,14.60
2019-02-26T05:31:55.440Z,14.90
2019-02-26T05:34:25.955Z,14.80
2019-02-26T05:36:56.586Z,17.10
2019-02-26T05:39:28.804Z,16.30
2019-02-26T05:42:01.253Z,14.87
2019-02-26T05:44:31.753Z,14.20
2019-02-26T05:47:02.568Z,15.00
2019-02-26T05:49:35.317Z,13.00
2019-02-26T05:52:07.120Z,14.83
2019-02-26T05:54:37.670Z,13.27
2019-02-26T05:57:10.812Z,13.43
2019-02-26T05:59:41.988Z,14.17
2019-02-26T06:02:14.185Z,13.53
2019-02-26T06:04:46.728Z,13.10
2019-02-26T06:07:21.704Z,13.97
2019-02-26T06:09:51.665Z,15.67
2019-02-26T06:12:22.668Z,16.63
2019-02-26T06:14:54.026Z,16.50
2019-02-26T06:17:25.636Z,14.67
2019-02-26T06:20:02.086Z,15.83
2019-02-26T06:22:32.165Z,15.07
2019-02-26T06:25:07.006Z,15.13
2019-02-26T06:27:34.856Z,15.60
2019-02-26T06:30:07.358Z,15.80
2019-02-26T06:32:40.163Z,17.33
2019-02-26T06:35:13.672Z,15.83
2019-02-26T06:37:44.724Z,18.00
2019-02-26T06:40:15.239Z,15.50
2019-02-26T06:42:45.859Z,17.37
2019-02-26T06:45:16.979Z,17.13
2019-02-26T09:30:24.917Z,20.87
2019-02-26T09:32:55.375Z,20.53
2019-02-26T09:35:28.864Z,21.50
2019-02-26T09:38:00.774Z,21.33
2019-02-26T09:40:34.200Z,21.77
2019-02-26T09:43:02.518Z,21.17
2019-02-26T09:45:32.990Z,21.63
2019-02-26T09:48:03.453Z,20.73
2019-02-26T09:50:36.099Z,19.73
2019-02-26T09:53:06.072Z,20.53
2019-02-26T09:55:36.546Z,18.57
2019-02-26T09:58:06.992Z,18.17
2019-02-26T10:00:37.697Z,17.80
2019-02-26T10:03:10.312Z,16.63
2019-02-26T10:05:40.499Z,17.33
2019-02-26T10:08:10.968Z,17.77
2019-02-26T10:10:41.427Z,16.97
2019-02-26T10:13:11.889Z,17.13
2019-02-26T10:15:44.323Z,18.80
2019-02-26T10:18:14.490Z,18.93
2019-02-26T10:20:47.369Z,17.87
2019-02-26T10:23:19.199Z,16.80
2019-02-26T10:25:53.050Z,16.47
2019-02-26T10:28:22.293Z,16.97
2019-02-26T10:30:55.071Z,17.83
2019-02-26T10:33:25.383Z,18.63
2019-02-26T10:35:55.853Z,16.23
2019-02-26T10:38:30.900Z,16.47
2019-02-26T10:40:59.790Z,17.97
2019-02-26T10:43:30.914Z,17.83
2019-02-26T10:46:01.796Z,17.80
2019-02-26T10:48:33.321Z,17.87
2019-02-26T10:51:06.711Z,19.50
2019-02-26T10:53:36.325Z,18.73
2019-02-26T10:56:07.070Z,18.07
2019-02-26T10:58:37.585Z,16.50
2019-02-26T11:01:08.153Z,18.30
2019-02-26T11:03:43.419Z,19.27
2019-02-26T11:06:14.468Z,16.53
2019-02-26T11:08:43.546Z,15.47
2019-02-26T11:11:16.557Z,15.63
2019-02-26T11:13:50.969Z,15.70
2019-02-26T11:16:25.189Z,17.43
2019-02-26T11:18:50.863Z,16.27
2019-02-26T11:21:21.309Z,14.83
2019-02-26T11:23:51.778Z,14.10
2019-02-26T11:26:22.295Z,13.27
2019-02-26T11:28:52.746Z,13.70
2019-02-26T11:31:25.516Z,14.97
2019-02-26T11:33:57.279Z,13.20
2019-02-26T11:36:28.186Z,12.87
2019-02-26T11:39:02.274Z,13.93
2019-02-26T11:41:35.870Z,13.53
2019-02-26T11:44:09.865Z,13.80
2019-02-26T11:46:38.274Z,12.83
2019-02-26T11:49:09.389Z,12.70
2019-02-26T11:51:42.473Z,12.43
2019-02-26T11:54:15.015Z,12.53
2019-02-26T11:56:47.395Z,12.53
2019-02-26T11:59:19.403Z,13.23
2019-02-26T12:01:49.794Z,12.37
2019-02-26T12:04:20.482Z,12.50
2019-02-26T12:06:50.930Z,13.08
2019-02-26T12:09:21.389Z,12.10
2019-02-26T12:11:51.845Z,12.03
2019-02-26T12:14:22.279Z,12.37
2019-02-26T12:16:52.988Z,12.50
2019-02-26T12:19:25.661Z,12.97
2019-02-26T12:21:57.525Z,12.20
2019-02-26T12:24:30.776Z,12.17
2019-02-26T12:27:07.249Z,11.60
2019-02-26T12:29:40.211Z,9.10
2019-02-26T12:32:10.850Z,8.80
2019-02-26T12:34:44.623Z,8.90
2019-02-26T12:37:13.785Z,9.30
2019-02-26T12:39:46.502Z,7.87
2019-02-26T12:42:18.464Z,8.10
2019-02-26T12:44:48.929Z,8.63
2019-02-26T12:47:21.768Z,8.57
2019-02-26T12:49:51.587Z,8.63
2019-02-26T12:52:26.499Z,7.37
2019-02-26T12:54:54.952Z,8.05
2019-02-26T12:57:28.883Z,7.83
2019-02-26T12:59:59.344Z,7.55
2019-02-26T13:02:30.755Z,7.92
2019-02-26T13:05:01.198Z,8.05
2019-02-26T13:07:32.724Z,8.40
2019-02-26T13:10:04.119Z,8.35
2019-02-26T13:12:35.097Z,8.05
2019-02-26T13:15:09.760Z,7.45
2019-02-26T13:17:38.754Z,8.93
2019-02-26T13:20:11.865Z,8.18
2019-02-26T13:25:17.133Z,8.58
2019-02-26T13:27:48.222Z,8.68
2019-02-26T13:30:21.226Z,8.40
2019-02-26T13:32:57.224Z,8.08
2019-02-26T13:35:23.985Z,8.38
2019-02-26T13:37:54.694Z,8.53
2019-02-26T13:40:25.296Z,8.55
2019-02-26T13:45:28.149Z,8.68
2019-02-26T13:48:01.274Z,8.83
2019-02-26T13:50:31.102Z,9.38
2019-02-26T13:53:01.561Z,8.38
2019-02-26T13:55:33.004Z,8.53
2019-02-26T13:58:11.386Z,8.43
2019-02-26T14:00:36.021Z,8.95
2019-02-26T14:03:06.497Z,8.25
2019-02-26T14:05:38.378Z,7.40
2019-02-26T14:08:08.937Z,7.72
2019-02-26T14:10:39.395Z,8.33
2019-02-26T14:13:09.851Z,6.78
2019-02-26T14:15:40.829Z,7.63
2019-02-26T14:18:11.281Z,7.60
2019-02-26T14:20:42.642Z,7.03
2019-02-26T14:23:13.458Z,7.80
2019-02-26T14:25:44.313Z,7.60
2019-02-26T14:28:15.094Z,7.50
2019-02-26T14:30:46.013Z,7.10
2019-02-26T14:33:16.461Z,6.77
2019-02-26T14:35:46.986Z,6.07
2019-02-26T14:38:18.399Z,6.03
2019-02-26T14:40:48.843Z,6.00
2019-02-26T14:43:19.277Z,5.77
2019-02-26T14:45:49.724Z,5.10
2019-02-26T14:48:20.429Z,5.47
2019-02-26T14:50:50.873Z,5.20
2019-02-26T14:53:22.306Z,4.67
2019-02-26T14:55:53.180Z,4.40
2019-02-26T14:58:23.754Z,3.97
2019-02-26T15:00:57.657Z,4.20
2019-02-26T15:03:26.341Z,3.63
2019-02-26T15:05:56.785Z,3.90
2019-02-26T15:08:27.698Z,3.70
2019-02-26T15:10:58.441Z,3.77
2019-02-26T15:13:29.222Z,3.90
2019-02-26T15:15:59.655Z,3.37
2019-02-26T15:18:30.216Z,4.00
2019-02-26T15:21:00.662Z,3.97
2019-02-26T15:23:31.387Z,3.70
2019-02-26T15:26:01.835Z,3.90
2019-02-26T15:28:32.285Z,3.93
2019-02-26T15:31:02.758Z,3.70
2019-02-26T15:33:33.216Z,3.83
2019-02-26T15:36:03.654Z,3.63
2019-02-26T15:38:34.104Z,3.53
2019-02-26T15:41:04.942Z,4.27
2019-02-26T15:43:35.632Z,3.90
2019-02-26T15:46:06.413Z,4.33
2019-02-26T15:48:37.718Z,4.17
2019-02-26T15:51:14.382Z,4.37
2019-02-26T15:53:40.330Z,9.83
2019-02-26T15:56:10.773Z,11.90
2019-02-26T15:58:41.273Z,12.57
2019-02-26T16:01:12.791Z,11.77
2019-02-26T16:03:45.279Z,11.73
2019-02-26T16:06:15.773Z,11.93
2019-02-26T16:08:46.362Z,11.90
2019-02-26T16:11:16.806Z,11.07
2019-02-26T16:13:47.874Z,13.00
2019-02-26T16:16:18.386Z,12.23
2019-02-26T16:18:48.838Z,13.00
2019-02-26T16:21:19.521Z,12.37
2019-02-26T16:23:50.006Z,12.90
2019-02-26T16:26:20.478Z,12.43
2019-02-26T16:28:50.940Z,12.57
2019-02-26T16:31:22.045Z,12.80
2019-02-26T16:33:52.518Z,12.97
2019-02-26T16:36:22.978Z,12.73
2019-02-26T16:38:53.460Z,13.83
2019-02-26T16:41:24.043Z,14.50
2019-02-26T16:43:54.535Z,14.63
2019-02-26T16:46:24.997Z,14.67
2019-02-26T16:48:55.788Z,13.67
2019-02-26T16:51:26.227Z,14.23
2019-02-26T16:53:56.770Z,15.13
2019-02-26T16:56:27.232Z,14.40
2019-02-26T16:58:57.861Z,15.07
2019-02-26T17:01:28.395Z,14.97
2019-02-26T17:03:59.817Z,15.87
2019-02-26T17:06:30.505Z,16.30
2019-02-26T17:09:01.141Z,16.40
2019-02-26T17:11:33.181Z,16.43
2019-02-26T17:14:05.065Z,17.47
2019-02-26T17:16:35.502Z,16.47
2019-02-26T17:19:05.952Z,16.87
2019-02-26T17:21:36.374Z,16.63
2019-02-26T17:24:06.891Z,17.10
2019-02-26T17:26:39.242Z,16.30
2019-02-26T17:29:10.008Z,16.67
2019-02-26T17:31:40.455Z,17.30
2019-02-26T17:34:10.943Z,16.07
2019-02-26T17:36:41.418Z,18.37
2019-02-26T17:39:11.874Z,17.60
2019-02-26T17:41:44.695Z,16.87
2019-02-26T17:44:14.563Z,17.00
2019-02-26T17:46:44.998Z,17.47
2019-02-26T17:49:15.453Z,17.07
2019-02-26T17:51:45.913Z,16.67
2019-02-26T17:54:16.590Z,17.50
2019-02-26T17:56:47.054Z,15.98
2019-02-26T17:59:17.510Z,16.43
2019-02-26T18:01:50.346Z,16.73
2019-02-26T18:04:23.054Z,17.87
2019-02-26T18:06:52.934Z,17.30
2019-02-26T18:09:23.393Z,19.10
2019-02-26T18:11:53.841Z,19.47
2019-02-26T18:14:24.317Z,18.33
2019-02-26T18:16:54.778Z,18.73
2019-02-26T18:19:25.472Z,18.07
2019-02-26T18:21:55.905Z,17.67
2019-02-26T18:24:26.394Z,17.70
2019-02-26T18:26:56.841Z,17.03
2019-02-26T18:29:27.344Z,17.50
2019-02-26T18:31:57.785Z,16.80
2019-02-26T18:34:28.286Z,17.03
2019-02-26T18:36:58.740Z,17.63
2019-02-26T18:39:29.575Z,18.23
2019-02-26T18:42:00.564Z,17.93
2019-02-26T18:44:31.104Z,17.17
2019-02-26T18:47:01.705Z,18.10
2019-02-26T18:49:32.868Z,17.93
2019-02-26T18:52:03.700Z,19.10
2019-02-26T18:54:34.242Z,20.90
2019-02-26T18:57:04.797Z,18.60
2019-02-26T18:59:35.308Z,18.47
2019-02-26T19:02:05.770Z,18.90
2019-02-26T19:04:36.214Z,18.27
2019-02-26T19:07:06.655Z,15.97
2019-02-26T19:09:37.168Z,18.57
2019-02-26T19:12:07.670Z,18.57
2019-02-26T19:14:41.983Z,19.13
2019-02-26T19:17:10.376Z,18.53
2019-02-26T19:19:42.059Z,18.57
2019-02-26T19:22:12.975Z,17.97
2019-02-26T19:24:43.588Z,18.00
2019-02-26T19:27:14.048Z,18.90
2019-02-26T19:29:44.540Z,17.33
2019-02-26T19:32:15.719Z,17.13
2019-02-26T19:34:47.937Z,19.20
2019-02-26T19:37:19.124Z,20.30
2019-02-26T19:39:50.796Z,20.57
